CEST,Max TemperatureF,Mean TemperatureF,Min TemperatureF,Max Dew PointF,MeanDew PointF,Min DewpointF,Max Humidity, Mean Humidity, Min Humidity, Max Sea Level PressureIn, Mean Sea Level PressureIn, Min Sea Level PressureIn, Max VisibilityMiles, Mean VisibilityMiles, Min VisibilityMiles, Max Wind SpeedMPH, Mean Wind SpeedMPH, Max Gust SpeedMPH,PrecipitationIn, CloudCover, Events, WindDirDegrees
2013-3-1,42,38,35,37,37,36,100,90,81,30.15,30.09,30.04,5,3,2,10,7,,0.00,7,,216
2013-3-2,44,38,32,36,29,25,100,71,46,30.15,30.11,30.06,6,5,3,10,6,,0.00,5,,321
2013-3-3,48,37,26,30,28,25,100,70,46,30.15,30.08,30.01,6,5,3,14,7,,0.00,1,,227
2013-3-4,46,36,26,28,23,19,86,58,34,30.30,30.22,30.12,,,,14,8,,0.00,,,9
2013-3-5,53,37,21,27,22,16,86,56,30,30.39,30.33,30.24,,,,12,4,,0.00,,,162
2013-3-6,55,45,35,37,31,23,65,55,47,30.12,30.05,29.95,6,6,6,17,10,29,0.00,8,,165
2013-3-7,55,50,46,48,40,36,100,69,58,29.86,29.80,29.77,6,6,4,14,10,,0.00,8,Rain,180
2013-3-8,64,55,46,50,47,45,100,79,56,29.71,29.69,29.65,6,6,4,10,8,,0.00,6,Rain,170
2013-3-9,60,55,50,54,51,48,100,88,72,29.62,29.59,29.59,6,6,5,10,7,,0.00,6,Rain,218
2013-3-10,55,50,46,52,49,46,100,96,82,29.53,29.52,29.50,6,3,2,7,3,,0.00,7,Rain,302
2013-3-11,55,50,46,46,46,45,100,88,72,29.50,29.48,29.44,6,4,2,10,6,,0.00,7,,278
2013-3-12,57,44,32,45,38,32,100,79,51,29.59,29.54,29.47,6,3,0,6,2,,0.00,4,Fog,132
2013-3-13,55,50,44,46,45,45,100,85,67,29.50,29.47,29.47,6,5,1,13,7,,0.00,7,Rain,190
2013-3-14,46,42,33,46,42,34,100,97,93,29.39,29.26,29.12,6,4,2,22,10,,0.00,8,Rain,52
2013-3-15,28,27,26,28,27,27,100,98,93,29.80,29.49,29.24,5,3,1,20,11,,0.00,8,Snow,325
2013-3-16,32,26,21,25,20,16,100,77,51,30.12,30.06,29.98,6,4,2,6,2,,0.00,7,Snow,208
2013-3-17,35,26,17,25,17,14,100,70,41,30.21,30.17,30.12,6,4,0,6,2,,0.00,1,Fog,104
2013-3-18,46,38,30,36,29,23,80,65,50,29.98,29.80,29.56,6,6,5,18,11,,0.00,8,Rain,135
2013-3-19,51,46,41,45,39,36,93,77,58,29.65,29.49,29.39,6,6,6,33,16,,0.00,6,Rain,228
2013-3-20,59,46,33,43,38,34,100,73,45,29.83,29.81,29.80,6,6,6,14,8,,0.00,6,,192
2013-3-21,48,45,42,45,41,37,93,81,76,29.71,29.67,29.62,6,6,6,15,8,,0.00,8,Rain,336
2013-3-22,42,37,32,34,32,27,100,85,66,29.86,29.73,29.65,6,5,4,26,21,39,0.00,8,Rain-Snow,327
2013-3-23,37,30,24,25,21,18,74,66,60,30.06,30.05,30.01,6,6,6,16,10,,0.00,1,,10
2013-3-24,33,25,17,12,10,7,68,52,41,30.15,30.12,30.06,,,,16,14,,0.00,,,31
2013-3-25,37,32,28,32,24,14,100,72,55,29.98,29.88,29.71,6,5,2,15,12,,0.00,8,Rain-Snow,31
2013-3-26,35,34,32,36,34,32,100,100,100,29.71,29.64,29.62,5,4,2,9,6,,0.00,8,Rain-Snow,10
2013-3-27,35,34,32,32,32,30,100,95,87,29.95,29.84,29.77,6,4,2,8,3,,0.00,8,Rain-Snow,211
2013-3-28,39,34,30,34,31,30,100,89,75,30.06,30.05,30.01,6,4,2,7,3,,0.00,7,,133
2013-3-29,50,42,35,43,38,32,87,82,71,29.92,29.82,29.74,6,5,4,16,9,29,0.00,8,Rain,157
2013-3-30,55,48,41,50,46,41,100,91,82,29.74,29.70,29.62,6,5,2,10,4,,0.00,8,Rain,175
2013-3-31,60,54,46,54,50,45,100,86,68,29.50,29.45,29.42,6,6,6,17,8,,0.00,8,Rain-Thunderstorm,153
2013-4-1,,,,,,,,,,,,,,,,,,,,,,